createdAt,value
2023-03-26T00:03:07.088Z,90
2023-03-26T00:06:32.365Z,89
2023-03-26T00:09:57.631Z,90
2023-03-26T00:13:22.945Z,90
2023-03-26T00:16:48.165Z,90
2023-03-26T00:20:13.429Z,91
2023-03-26T00:23:38.704Z,91
2023-03-26T00:27:04.040Z,90
2023-03-26T00:30:29.409Z,90
2023-03-26T00:33:54.554Z,90
2023-03-26T00:37:19.804Z,90
2023-03-26T00:40:45.053Z,90
2023-03-26T00:44:10.287Z,90
2023-03-26T00:47:35.569Z,89
2023-03-26T00:51:00.798Z,89
2023-03-26T00:54:26.043Z,89
2023-03-26T00:57:51.291Z,90
2023-03-26T01:01:16.718Z,90
2023-03-26T01:04:41.949Z,90
2023-03-26T01:08:07.135Z,90
2023-03-26T01:11:32.476Z,91
2023-03-26T01:14:57.755Z,90
2023-03-26T01:18:23.027Z,90
2023-03-26T01:21:48.303Z,90
2023-03-26T01:25:13.534Z,90
2023-03-26T01:28:38.816Z,90
2023-03-26T01:32:04.093Z,91
2023-03-26T01:35:29.440Z,91
2023-03-26T01:38:54.712Z,91
2023-03-26T01:42:19.957Z,91
2023-03-26T01:45:45.199Z,91
2023-03-26T01:49:10.436Z,90
2023-03-26T01:52:35.677Z,91
2023-03-26T01:56:00.967Z,90
2023-03-26T01:59:26.186Z,90
2023-03-26T02:02:51.543Z,90
2023-03-26T02:06:16.809Z,90
2023-03-26T02:09:42.110Z,90
2023-03-26T02:13:07.411Z,90
2023-03-26T02:16:32.671Z,90
2023-03-26T02:19:57.904Z,90
2023-03-26T02:23:23.118Z,90
2023-03-26T02:26:48.435Z,90
2023-03-26T02:30:13.728Z,90
2023-03-26T02:33:38.905Z,90
2023-03-26T02:37:04.141Z,90
2023-03-26T02:40:29.377Z,89
2023-03-26T02:43:54.684Z,89
2023-03-26T02:47:19.950Z,89
2023-03-26T02:50:45.166Z,89
2023-03-26T02:54:10.446Z,89
2023-03-26T02:57:35.712Z,89
2023-03-26T03:01:01.007Z,89
2023-03-26T03:04:26.208Z,89
2023-03-26T03:07:51.435Z,89
2023-03-26T03:11:16.698Z,88
2023-03-26T03:14:41.921Z,88
2023-03-26T03:18:07.223Z,88
2023-03-26T03:21:32.511Z,88
2023-03-26T03:24:57.744Z,88
2023-03-26T03:28:22.961Z,87
2023-03-26T03:31:48.249Z,87
2023-03-26T03:35:14.328Z,87
2023-03-26T03:38:39.659Z,87
2023-03-26T03:42:04.841Z,87
2023-03-26T03:45:30.192Z,87
2023-03-26T03:48:55.448Z,88
2023-03-26T03:52:20.744Z,88
2023-03-26T03:55:46.027Z,88
2023-03-26T03:59:11.244Z,88
2023-03-26T04:02:36.574Z,88
2023-03-26T04:06:01.819Z,88
2023-03-26T04:09:27.100Z,88
2023-03-26T04:12:52.401Z,88
2023-03-26T04:16:17.712Z,88
2023-03-26T04:19:42.944Z,88
2023-03-26T04:23:08.242Z,89
2023-03-26T04:26:33.493Z,88
2023-03-26T04:29:58.766Z,88
2023-03-26T04:33:24.020Z,88
2023-03-26T04:36:49.308Z,88
2023-03-26T04:40:14.606Z,88
2023-03-26T04:43:39.855Z,88
2023-03-26T04:47:05.157Z,87
2023-03-26T04:50:30.425Z,88
2023-03-26T04:53:55.670Z,87
2023-03-26T04:57:20.962Z,88
2023-03-26T05:00:46.239Z,88
2023-03-26T05:04:11.647Z,88
2023-03-26T05:07:39.539Z,88
2023-03-26T05:11:04.778Z,88
2023-03-26T05:14:30.050Z,88
2023-03-26T05:17:55.387Z,88
2023-03-26T05:21:20.605Z,87
2023-03-26T05:24:45.848Z,88
2023-03-26T05:28:11.185Z,88
2023-03-26T05:31:36.392Z,88
2023-03-26T05:35:01.661Z,88
2023-03-26T05:38:26.993Z,88
2023-03-26T05:41:52.155Z,88
2023-03-26T05:45:17.407Z,87
2023-03-26T05:48:42.639Z,87
2023-03-26T05:52:07.909Z,88
2023-03-26T05:55:33.162Z,88
2023-03-26T05:58:58.381Z,88
2023-03-26T06:02:23.669Z,88
2023-03-26T06:05:48.909Z,88
2023-03-26T06:09:14.243Z,88
2023-03-26T06:12:39.613Z,88
2023-03-26T06:16:04.939Z,88
2023-03-26T06:19:30.202Z,87
2023-03-26T06:22:55.682Z,87
2023-03-26T06:26:20.946Z,87
2023-03-26T06:29:46.294Z,86
2023-03-26T06:33:11.592Z,87
2023-03-26T06:36:36.989Z,87
2023-03-26T06:40:02.356Z,87
2023-03-26T06:43:27.668Z,87
2023-03-26T06:46:53.010Z,86
2023-03-26T06:50:18.288Z,86
2023-03-26T06:53:43.833Z,85
2023-03-26T06:57:09.068Z,85
2023-03-26T07:00:34.241Z,85
2023-03-26T07:03:59.812Z,86
2023-03-26T07:07:24.736Z,85
2023-03-26T07:10:50.089Z,84
2023-03-26T07:14:15.354Z,85
2023-03-26T07:17:40.619Z,85
2023-03-26T07:21:05.881Z,84
2023-03-26T07:24:31.111Z,84
2023-03-26T07:27:56.417Z,85
2023-03-26T07:31:21.709Z,84
2023-03-26T07:34:46.953Z,84
2023-03-26T07:38:12.231Z,85
2023-03-26T07:41:37.466Z,84
2023-03-26T07:45:02.752Z,84
2023-03-26T07:48:28.034Z,83
2023-03-26T07:51:53.308Z,83
2023-03-26T07:55:18.653Z,84
2023-03-26T07:58:43.971Z,83
2023-03-26T08:02:09.266Z,83
2023-03-26T08:05:34.523Z,83
2023-03-26T08:08:59.817Z,83
2023-03-26T08:12:25.172Z,83
2023-03-26T08:15:50.496Z,83
2023-03-26T08:19:15.813Z,83
2023-03-26T08:22:41.146Z,82
2023-03-26T08:26:06.448Z,83
2023-03-26T08:29:31.821Z,84
2023-03-26T08:32:57.185Z,83
2023-03-26T08:36:22.415Z,84
2023-03-26T08:39:47.755Z,84
2023-03-26T08:43:13.062Z,82
2023-03-26T08:46:38.461Z,83
2023-03-26T08:50:03.729Z,82
2023-03-26T08:53:29.057Z,82
2023-03-26T08:56:54.433Z,82
2023-03-26T09:00:19.758Z,82
2023-03-26T09:03:45.117Z,83
2023-03-26T09:07:10.406Z,82
2023-03-26T09:10:35.744Z,82
2023-03-26T09:14:01.084Z,82
2023-03-26T09:17:26.479Z,81
2023-03-26T09:20:51.865Z,81
2023-03-26T09:24:17.218Z,81
2023-03-26T09:27:42.567Z,82
2023-03-26T09:31:07.952Z,81
2023-03-26T09:34:33.274Z,82
2023-03-26T09:37:58.839Z,82
2023-03-26T09:41:24.032Z,83
2023-03-26T09:44:49.381Z,82
2023-03-26T09:48:14.716Z,82
2023-03-26T09:51:40.040Z,83
2023-03-26T09:55:05.399Z,82
2023-03-26T09:58:30.695Z,82
2023-03-26T10:01:56.049Z,84
2023-03-26T10:05:21.397Z,81
2023-03-26T10:08:46.712Z,81
2023-03-26T10:12:12.076Z,82
2023-03-26T10:15:37.409Z,83
2023-03-26T10:19:02.734Z,83
2023-03-26T10:22:28.086Z,84
2023-03-26T10:25:53.415Z,83
2023-03-26T10:29:18.786Z,84
2023-03-26T10:32:44.099Z,85
2023-03-26T10:36:09.462Z,84
2023-03-26T10:39:36.432Z,85
2023-03-26T10:43:00.180Z,86
2023-03-26T10:46:25.587Z,85
2023-03-26T10:49:50.925Z,86
2023-03-26T10:53:16.269Z,86
2023-03-26T10:56:41.624Z,85
2023-03-26T11:00:06.992Z,86
2023-03-26T11:03:32.370Z,86
2023-03-26T11:06:57.691Z,86
2023-03-26T11:10:23.053Z,87
2023-03-26T11:13:48.473Z,86
2023-03-26T11:17:14.523Z,88
2023-03-26T11:20:39.227Z,87
2023-03-26T11:24:06.056Z,87
2023-03-26T11:27:29.888Z,86
2023-03-26T11:30:55.570Z,87
2023-03-26T11:34:20.564Z,87
2023-03-26T11:37:45.969Z,88
2023-03-26T11:41:11.316Z,88
2023-03-26T11:44:36.652Z,87
2023-03-26T11:48:02.000Z,89
2023-03-26T11:51:27.287Z,87
2023-03-26T11:54:52.611Z,88
2023-03-26T11:58:17.930Z,89
2023-03-26T12:01:43.296Z,90
2023-03-26T12:05:08.680Z,89
2023-03-26T12:08:34.041Z,89
2023-03-26T12:11:59.432Z,90
2023-03-26T12:15:24.765Z,91
2023-03-26T12:18:50.115Z,90
2023-03-26T12:22:15.501Z,90
2023-03-26T12:25:40.804Z,91
2023-03-26T12:29:06.176Z,92
2023-03-26T12:32:43.134Z,91
2023-03-26T12:35:56.802Z,91
2023-03-26T12:40:08.197Z,89
2023-03-26T12:44:45.453Z,91
2023-03-26T12:46:58.869Z,90
2023-03-26T12:49:37.981Z,91
2023-03-26T12:53:03.277Z,90
2023-03-26T12:56:28.596Z,91
2023-03-26T12:59:53.904Z,91
2023-03-26T13:03:19.447Z,89
2023-03-26T13:06:48.402Z,91
2023-03-26T13:10:09.866Z,92
2023-03-26T13:13:35.165Z,91
2023-03-26T13:17:00.471Z,90
2023-03-26T13:20:25.789Z,90
2023-03-26T13:23:51.089Z,91
2023-03-26T13:27:16.380Z,90
2023-03-26T13:30:41.737Z,90
2023-03-26T13:34:06.998Z,91
2023-03-26T13:37:32.308Z,89
2023-03-26T13:40:58.059Z,90
2023-03-26T13:44:23.213Z,89
2023-03-26T13:47:48.580Z,90
2023-03-26T13:51:13.842Z,90
2023-03-26T13:54:39.163Z,90
2023-03-26T13:58:04.401Z,90
2023-03-26T14:01:29.758Z,91
2023-03-26T14:04:55.023Z,90
2023-03-26T14:08:20.284Z,90
2023-03-26T14:11:45.582Z,89
2023-03-26T14:15:10.867Z,90
2023-03-26T14:18:36.127Z,91
2023-03-26T14:22:01.408Z,92
2023-03-26T14:25:26.702Z,91
2023-03-26T14:28:52.001Z,91
2023-03-26T14:32:24.061Z,91
2023-03-26T14:35:42.636Z,92
2023-03-26T14:39:07.823Z,91
2023-03-26T14:42:33.084Z,91
2023-03-26T14:45:58.417Z,91
2023-03-26T14:49:23.653Z,92
2023-03-26T14:52:48.957Z,92
2023-03-26T14:56:15.626Z,92
2023-03-26T14:59:39.500Z,92
2023-03-26T15:03:04.818Z,92
2023-03-26T15:39:58.908Z,91
2023-03-26T15:43:23.371Z,91
2023-03-26T15:46:48.670Z,91
2023-03-26T15:50:14.096Z,91
2023-03-26T15:53:39.496Z,91
2023-03-26T15:57:04.982Z,91
2023-03-26T16:00:31.741Z,90
2023-03-26T16:03:57.189Z,90
2023-03-26T16:07:22.670Z,91
2023-03-26T16:10:48.004Z,91
2023-03-26T16:14:13.428Z,91
2023-03-26T16:17:38.725Z,90
2023-03-26T16:21:04.080Z,90
2023-03-26T16:24:29.412Z,89
2023-03-26T16:27:54.999Z,88
2023-03-26T16:31:23.722Z,88
2023-03-26T16:34:45.674Z,88
2023-03-26T16:38:11.094Z,87
2023-03-26T16:41:36.489Z,87
2023-03-26T16:45:01.878Z,87
2023-03-26T16:48:27.288Z,88
2023-03-26T16:51:52.646Z,89
2023-03-26T16:55:18.008Z,89
2023-03-26T16:58:43.334Z,89
2023-03-26T17:02:08.716Z,89
2023-03-26T17:05:34.038Z,88
2023-03-26T17:08:59.427Z,89
2023-03-26T17:12:24.768Z,89
2023-03-26T17:15:50.148Z,89
2023-03-26T17:19:15.466Z,89
2023-03-26T17:22:40.969Z,89
2023-03-26T17:26:06.431Z,89
2023-03-26T17:29:31.939Z,89
2023-03-26T17:32:57.549Z,89
2023-03-26T17:36:23.022Z,89
2023-03-26T17:39:48.586Z,89
2023-03-26T17:43:14.016Z,89
2023-03-26T17:46:39.500Z,89
2023-03-26T17:50:07.527Z,90
2023-03-26T17:53:33.723Z,90
2023-03-26T17:56:59.456Z,90
2023-03-26T18:00:24.750Z,89
2023-03-26T18:03:50.139Z,89
2023-03-26T18:07:15.681Z,89
2023-03-26T18:10:41.266Z,89
2023-03-26T18:14:06.778Z,89
2023-03-26T18:17:32.292Z,89
2023-03-26T18:20:58.016Z,88
2023-03-26T18:24:23.471Z,88
2023-03-26T18:27:49.215Z,88
2023-03-26T18:31:14.832Z,88
2023-03-26T18:34:40.397Z,88
2023-03-26T18:38:06.008Z,88
2023-03-26T18:41:31.621Z,89
2023-03-26T18:44:57.259Z,88
2023-03-26T18:48:22.812Z,88
2023-03-26T18:51:56.484Z,88
2023-03-26T18:55:13.939Z,88
2023-03-26T18:58:39.397Z,88
2023-03-26T19:02:05.001Z,88
2023-03-26T19:05:30.525Z,88
2023-03-26T19:08:56.043Z,89
2023-03-26T19:12:21.542Z,89
2023-03-26T19:15:47.077Z,89
2023-03-26T19:19:12.595Z,89
2023-03-26T19:22:38.154Z,90
2023-03-26T19:26:03.712Z,89
2023-03-26T19:29:29.273Z,89
2023-03-26T19:32:54.821Z,88
2023-03-26T19:36:20.353Z,89
2023-03-26T19:39:45.854Z,89
2023-03-26T19:43:11.328Z,89
2023-03-26T19:46:53.099Z,89
2023-03-26T19:50:02.460Z,90
2023-03-26T19:53:27.972Z,90
2023-03-26T19:56:53.609Z,90
2023-03-26T20:00:18.998Z,91
2023-03-26T20:03:44.413Z,90
2023-03-26T20:07:09.490Z,90
2023-03-26T20:10:34.742Z,89
2023-03-26T20:14:00.037Z,88
2023-03-26T20:17:25.247Z,88
2023-03-26T20:20:50.460Z,89
2023-03-26T20:24:15.701Z,88
2023-03-26T20:27:40.949Z,88
2023-03-26T20:31:06.294Z,87
2023-03-26T20:34:31.485Z,88
2023-03-26T20:37:56.766Z,89
2023-03-26T20:41:22.014Z,89
2023-03-26T20:44:47.262Z,89
2023-03-26T20:48:12.541Z,89
2023-03-26T20:51:37.752Z,89
2023-03-26T20:55:03.014Z,88
2023-03-26T20:58:31.615Z,89
2023-03-26T21:01:53.551Z,89
2023-03-26T21:05:18.991Z,89
2023-03-26T21:08:44.178Z,89
2023-03-26T21:12:09.429Z,89
2023-03-26T21:15:34.698Z,89
2023-03-26T21:18:59.958Z,89
2023-03-26T21:22:25.219Z,89
2023-03-26T21:25:50.440Z,89
2023-03-26T21:29:15.692Z,89
2023-03-26T21:32:40.957Z,89
2023-03-26T21:36:06.247Z,90
2023-03-26T21:39:31.484Z,89
2023-03-26T21:42:56.652Z,90
2023-03-26T21:46:21.949Z,89
2023-03-26T21:49:47.139Z,89
2023-03-26T21:53:12.410Z,89
2023-03-26T21:56:37.711Z,89
2023-03-26T22:00:02.935Z,89
2023-03-26T22:03:28.193Z,89
2023-03-26T22:06:53.427Z,89
2023-03-26T22:10:18.687Z,89
2023-03-26T22:13:43.984Z,89
2023-03-26T22:17:09.236Z,89
2023-03-26T22:20:34.511Z,89
2023-03-26T22:23:59.757Z,89
2023-03-26T22:27:25.041Z,89
2023-03-26T22:30:50.332Z,89
2023-03-26T22:34:15.539Z,90
2023-03-26T22:37:40.812Z,90
2023-03-26T22:41:06.102Z,90
2023-03-26T22:44:31.436Z,89
2023-03-26T22:48:03.362Z,89
2023-03-26T22:51:21.954Z,88
2023-03-26T22:54:47.192Z,88
2023-03-26T22:58:12.473Z,88
2023-03-26T23:01:37.787Z,88
2023-03-26T23:05:02.990Z,88
2023-03-26T23:08:28.190Z,88
2023-03-26T23:11:53.467Z,89
2023-03-26T23:15:18.695Z,89
2023-03-26T23:18:43.927Z,89
2023-03-26T23:22:09.152Z,89
2023-03-26T23:25:34.368Z,89
2023-03-26T23:28:59.588Z,89
2023-03-26T23:32:25.121Z,89
2023-03-26T23:35:50.066Z,89
2023-03-26T23:39:15.312Z,90
2023-03-26T23:42:40.526Z,90
2023-03-26T23:46:05.796Z,90
2023-03-26T23:49:31.041Z,89
2023-03-26T23:52:56.279Z,89
2023-03-26T23:56:21.591Z,88
2023-03-26T23:59:46.743Z,88
